메인 페이지
METAR-TAF:

METAR-TAF

공항 :

아카풀코, 멕시코

위도: 16-46N, 경도: 099-45W, 고도: 5m

현재 날씨관측

예보는 28분 전, 20:49시(UTC)에 발표되었습니다.
남서3kt
온도 31°C
습도 66%
기압 1011 hPa
시정: 9.7km
고도 30000ft 상공 구름 보통

METAR: MMAA 192049Z 22003KT 6SM SCT300 31/24 A2986 RMK SLP112 57013 913 8/002 HZY

시각: 16:17 (21:17 UTC)

예보

예보는 4 시간 53분 전, 16:24시(UTC)에 발표되었습니다.
예보 대상 시간: 19일 18시부터 20일 24시까지 (UTC)
서남서5kt
시정: 9.7km
고도 30000ft 상공 구름 보통
연무
전환 중
19일 20시부터 19일 21시까지 (UTC)
서남서12kt
20일 0200시부터 (UTC)
북서5kt
시정: 10km
고도 10000ft 상공 구름 보통
고도 30000ft 상공 구름 많음
전환 중
20일 12시부터 20일 13시까지 (UTC)
5kt
고도 30000ft 상공 구름 많음
20일 1800시부터 (UTC)
서남서5kt
시정: 9.7km
고도 30000ft 상공 구름 보통
연무
전환 중
20일 20시부터 20일 21시까지 (UTC)
서남서12kt

TAF: MMAA 191624Z 1918/2024 24005KT 6SM HZ SCT300 TX32/1921Z TN24/2012Z BECMG 1920/1921 24012KT FM200200 32005KT P6SM SCT100 BKN300 BECMG 2012/2013 35005KT BKN300 FM201800 24005KT 6SM HZ SCT300 BECMG 2020/2021 24012KT

4,000개 이상의 공항 관측 자료 및 예보 (METAR 및 TAF 보고).

지도상에서 검색 가능한 기상관측소가 노란 점과 빨간 점으로 표시되어 있습니다.

기상관측소 명을 보려면 표시 위로 마우스를 이동하세요.

날씨 관측과 예보를 보려면 클릭하세요.

지도 변경 : 확대하려면 엑스 표시가 있는 녹색 버튼, 축소하려면 빼기 표시가 있는 녹색 버튼, 다음 페이지의 지도를 보려면 녹색 화살표를 클릭하세요.


METAR-TAF: